Caliente, Nevada Weather observations

Data are for observation ending at time listed.
 Day   Time    Ave.   Ave.  Ave.  Vector   Max.   Stn.    Total    Solar   Ave.  
  of    of     Air    Rel.  Wind   Wind    Wind   Baro.  Precip.   Rad.    Soil  
Year   Day     Temp.  Hum.  Speed  Dir.    Gust   Pres.                    Temp. 
2016   (PST)    F      %     mph   deg.    mph     mb.     in.     W/m2     F   
------------------------------------------------------------------------------
 183    0:00   67.3    63    0.7   211      2.3   869.4    0.00       0    99999.0
 183    0:10   67.3    63    0.7   213      1.8   869.3    0.00       0    99999.0
 183    0:20   67.1    64    0.1   186      0.7   869.2    0.00       0    99999.0
 183    0:30   66.7    65    0.7   228      2.6   869.0    0.00       0    99999.0
 183    0:40   66.3    65    0.9   203      2.1   869.0    0.00       0    99999.0
 183    0:50   65.8    67    1.0   118      1.8   869.1    0.00       0    99999.0
 183    1:00   65.8    67    0.6   247      1.7   868.9    0.00       0    99999.0
 183    1:10   65.9    66    0.4   241      1.6   868.8    0.00       0    99999.0
 183    1:20   66.1    66    0.9    25      5.3   868.7    0.00       0    99999.0
 183    1:30   66.0    66    1.4    43      6.2   868.8    0.00       0    99999.0
 183    1:40   66.2    66    0.5    17      1.7   868.8    0.00       0    99999.0
 183    1:50   65.6    66    1.2   125      2.3   868.8    0.00       0    99999.0
 183    2:00   65.9    65    0.6   110      2.2   868.7    0.00       0    99999.0
 183    2:10   66.5    64    0.5    61      1.5   868.7    0.00       0    99999.0
 183    2:20   66.5    64    0.1   180      0.9   868.8    0.00       0    99999.0
 183    2:30   66.7    63    0.8   295      1.8   868.7    0.00       0    99999.0
 183    2:40   66.4    65    0.6   256      2.6   868.6    0.00       0    99999.0
 183    2:50   65.8    67    0.2   224      1.6   868.6    0.00       0    99999.0
 183    3:00   65.8    67    1.2   293      4.5   868.5    0.00       0    99999.0
 183    3:10   65.3    66    2.7    26      5.6   868.5    0.00       0    99999.0
 183    3:20   65.4    66    2.3    40      4.9   868.4    0.00       0    99999.0
 183    3:30   65.2    67    3.1    37      7.5   868.4    0.00       0    99999.0
 183    3:40   64.9    68    3.4    39      7.3   868.4    0.00       0    99999.0
 183    3:50   64.7    69    4.3    35      8.3   868.3    0.00       0    99999.0
 183    4:00   64.3    69    3.4    28      6.3   868.3    0.00       0    99999.0
 183    4:10   64.5    69    1.3    31      4.6   868.3    0.00       0    99999.0
 183    4:20   64.5    68    1.1   134      2.8   868.3    0.00       0    99999.0
 183    4:30   64.6    68    0.8    13      2.6   868.4    0.00       2    99999.0
 183    4:40   64.8    68    0.6     1      2.2   868.4    0.00       8    99999.0
 183    4:50   65.0    68    0.6    17      2.0   868.4    0.00      18    99999.0
 183    5:00   65.1    68    1.7   344      4.1   868.5    0.00      31    99999.0
 183    5:10   65.1    67    1.4   332      3.6   868.6    0.00      41    99999.0
 183    5:20   65.3    68    0.6   205      2.0   868.8    0.00      52    99999.0
 183    5:30   65.4    68    1.0   238      1.9   868.9    0.00      60    99999.0
 183    5:40   65.7    66    0.1   243      1.1   868.9    0.00      63    99999.0
 183    5:50   65.9    66    0.5   112      1.7   868.9    0.00      77    99999.0
 183    6:00   66.4    65    1.0   313      2.1   868.9    0.00      85    99999.0
 183    6:10   66.7    65    1.4   256      5.5   868.8    0.00      93    99999.0
 183    6:20   67.0    65    1.1   259      3.3   868.7    0.00     102    99999.0
 183    6:30   67.2    64    1.9   281      2.7   868.7    0.00     119    99999.0
 183    6:40   67.6    63    1.9   326      3.2   868.9    0.00     146    99999.0
 183    6:50   68.4    61    0.3   358      2.3   869.0    0.00     182    99999.0
 183    7:00   68.6    62    1.5   227      3.0   868.9    0.00     192    99999.0
 183    7:10   69.2    59    0.4   272      2.1   869.1    0.00     237    99999.0
 183    7:20   70.1    59    1.3   166      2.8   869.2    0.00     373    99999.0
 183    7:30   71.6    55    1.6   343      4.2   869.2    0.00     438    99999.0
 183    7:40   72.8    53    2.7    17      5.6   869.2    0.00     498    99999.0
 183    7:50   74.2    50    2.0   344      5.8   869.1    0.00     520    99999.0
 183    8:00   75.1    48    1.6    43      3.4   869.0    0.00     557    99999.0
 183    8:10   74.8    49    2.1   255      5.4   868.9    0.00     585    99999.0
 183    8:20   75.2    44    2.8   269      5.3   869.0    0.00     613    99999.0
 183    8:30   76.5    41    2.7   300      6.6   869.0    0.00     609    99999.0
 183    8:40   77.1    40    1.7   123      4.8   868.9    0.00     663    99999.0
 183    8:50   77.9    40    1.6   193      4.1   868.8    0.00     690    99999.0
 183    9:00   78.5    38    1.9   140      5.8   868.7    0.00     675    99999.0
 183    9:10   78.7    37    2.4   155      5.0   868.6    0.00     686    99999.0
 183    9:20   80.0    34    1.3   198      5.1   868.5    0.00     703    99999.0
 183    9:30   80.2    34    2.3   250      5.6   868.5    0.00     740    99999.0
 183    9:40   81.4    32    1.3    35      4.5   868.4    0.00     776    99999.0
 183    9:50   82.4    30    0.9    34      4.8   868.4    0.00     773    99999.0
 183   10:00   82.5    31    1.5   195      4.7   868.4    0.00     617    99999.0
 183   10:10   82.7    32    1.7   236      5.3   868.3    0.00     839    99999.0
 183   10:20   83.1    31    2.2   163      7.1   868.2    0.00     734    99999.0
 183   10:30   81.7    33    3.3   140      6.0   868.1    0.00     704    99999.0
 183   10:40   83.4    32    3.1   248      9.3   868.0    0.00     742    99999.0
 183   10:50   83.2    33    2.7   221      7.2   868.0    0.00     482    99999.0
 183   11:00   82.7    32    2.9   226      9.0   867.9    0.00     646    99999.0
 183   11:10   83.6    32    2.7   244      9.9   867.8    0.00     690    99999.0
 183   11:20   83.8    30    3.3   248     11.1   867.7    0.00     616    99999.0
 183   11:30   83.9    30    3.3   247      7.6   867.6    0.00     650    99999.0
 183   11:40   85.1    29    1.8   176      8.0   867.5    0.00     824    99999.0
 183   11:50   85.3    28    2.9   240      7.5   867.4    0.00     817    99999.0
 183   12:00   86.6    27    2.2   279      6.8   867.3    0.00     814    99999.0
 183   12:10   87.1    26    1.2   244      7.5   867.2    0.00     806    99999.0
 183   12:20   87.6    25    1.7   238      5.2   866.9    0.00     808    99999.0
 183   12:30   87.3    26    2.6   241      8.9   866.8    0.00     665    99999.0
 183   12:40   86.7    26    3.6   223      9.6   866.6    0.00     812    99999.0
 183   12:50   87.7    25    4.6   246     12.1   866.3    0.00     811    99999.0
 183   13:00   88.1    24    3.1   242      9.8   866.3    0.00     806    99999.0
 183   13:10   87.9    24    2.1   178      7.1   866.2    0.00     762    99999.0
 183   13:20   88.5    24    4.3   239     13.3   866.0    0.00     710    99999.0
 183   13:30   87.2    25    4.8   240     12.5   865.9    0.00     248    99999.0
 183   13:40   88.2    24    5.2   248     11.0   865.7    0.00     774    99999.0
 183   13:50   88.3    24    4.4   244     12.3   865.6    0.00     324    99999.0
 183   14:00   88.6    23    2.6   226     11.3   865.3    0.00     661    99999.0
 183   14:10   89.1    23    4.0   240     10.2   865.2    0.00     667    99999.0
 183   14:20   89.3    23    4.1   245     11.4   865.2    0.00     507    99999.0
 183   14:30   89.7    22    3.5   246     11.5   865.1    0.00     687    99999.0
 183   14:40   89.7    22    2.3   183      8.3   865.0    0.00     566    99999.0
 183   14:50   89.6    22    2.6   242      6.6   864.9    0.00     402    99999.0
 183   15:00   90.3    22    2.3   160     10.3   864.9    0.00     700    99999.0
 183   15:10   86.1    23    9.6   120     19.4   865.2    0.00     382    99999.0
 183   15:20   81.6    26   12.8   117     22.7   865.5    0.00      85    99999.0
 183   15:30   79.1    28   10.6   116     20.9   865.8    0.00      98    99999.0
 183   15:40   78.4    28    8.6   118     21.6   865.9    0.00      85    99999.0
 183   15:50   78.3    28    7.2   117     18.0   865.8    0.00      76    99999.0
 183   16:00   78.1    29    6.7   116     16.8   866.0    0.00      73    99999.0
 183   16:10   77.4    32    7.0   126     14.3   866.2    0.00      85    99999.0
 183   16:20   77.3    32    4.8   115     10.8   866.3    0.00      75    99999.0
 183   16:30   78.0    32    4.7   114     13.4   866.3    0.00      47    99999.0
 183   16:40   78.7    34    0.7   234      5.8   866.5    0.00      26    99999.0
 183   16:50   76.9    43    2.0   150      6.4   866.5    0.00      14    99999.0
 183   17:00   73.9    55    1.7   142      4.6   866.3    0.01      10    99999.0
 183   17:10   72.2    59    2.6   105      7.7   866.1    0.01      15    99999.0
 183   17:20   72.9    58    3.5   258      9.1   866.5    0.00      15    99999.0
 183   17:30   72.3    60    8.5   288     22.5   867.6    0.00       3    99999.0
 183   17:40   72.0    49   12.2   306     27.2   868.8    0.00       1    99999.0
 183   17:50   67.5    61   12.5   343     25.5   869.9    0.10       0    99999.0
 183   18:00   62.1    78    4.6     3     15.2   870.6    0.05       0    99999.0
 183   18:10   61.8    82    4.2    81     11.0   870.7    0.03       0    99999.0
 183   18:20   61.8    84    4.9    66     14.7   870.7    0.03       0    99999.0
 183   18:30   61.6    82    6.1    86     19.6   870.4    0.02       0    99999.0
 183   18:40   62.1    78    4.2    88     13.4   870.9    0.01       0    99999.0
 183   18:50   62.7    78    4.2    63      9.6   871.2    0.00       0    99999.0
 183   19:00   62.5    83    1.3    49      6.4   871.4    0.01       0    99999.0
 183   19:10   62.5    83    1.5   268      3.4   871.7    0.01       0    99999.0
 183   19:20   62.3    82    1.4    21      4.2   871.8    0.02       0    99999.0
 183   19:30   61.6    87    2.7    73      6.9   871.4    0.02       0    99999.0
 183   19:40   61.5    87    4.9    52     11.1   871.1    0.01       0    99999.0
 183   19:50   61.6    84    6.4    54     17.1   871.2    0.00       0    99999.0
 183   20:00   61.7    85    2.9    73      7.2   871.3    0.02       0    99999.0
 183   20:10   61.7    85    2.3    54      7.2   871.4    0.01       0    99999.0
 183   20:20   61.5    86    5.1    49     10.8   871.1    0.01       0    99999.0
 183   20:30   61.4    85    3.5    97      7.8   871.3    0.02       0    99999.0
 183   20:40   61.7    84    2.8    78      8.4   871.2    0.01       0    99999.0
 183   20:50   61.7    85    4.4    68     10.9   871.0    0.01       0    99999.0
 183   21:00   61.8    84    1.3   153      5.4   871.2    0.01       0    99999.0
 183   21:10   62.1    83    0.8   249      2.6   871.4    0.01       0    99999.0
 183   21:20   61.9    86    2.5    62      6.3   871.2    0.01       0    99999.0
 183   21:30   61.8    85    3.0    80      7.0   870.6    0.00       0    99999.0
 183   21:40   62.0    79    2.9    97      9.0   870.4    0.01       0    99999.0
 183   21:50   61.9    81    2.2   143      6.4   870.6    0.00       0    99999.0
 183   22:00   61.6    81    1.5   147      4.6   870.3    0.00       0    99999.0
 183   22:10   61.7    83    1.3   241      3.7   870.1    0.00       0    99999.0
 183   22:20   61.8    84    1.8   302      3.9   870.1    0.00       0    99999.0
 183   22:30   61.7    86    1.0    44      3.7   870.1    0.00       0    99999.0
 183   22:40   61.7    87    0.6   182      1.7   870.1    0.00       0    99999.0
 183   22:50   61.5    87    0.7   239      2.4   870.0    0.00       0    99999.0
 183   23:00   61.6    85    0.7   232      1.8   870.1    0.00       0    99999.0
 183   23:10   61.8    85    1.2   134      2.4   870.3    0.00       0    99999.0

Return to Caliente, Nevada graphs page.


Western Regional Climate Center,wrcc@dri.edu